Time;durP1;ratioP1;P1;durP2;ratioP2;P2;SDS_P1;SDS_P2;PMS_P1;PMS_P2;Temp;Humidity;BMP_temperature;BMP_pressure;BME280_temperature;BME280_humidity;BME280_pressure;Samples;Min_cycle;Max_cycle;Signal;HPM_P1;HPM_P2
2022/06/18 00:02:13;;;;;;;4.03;3.73;;;21.70;65.10;;;;;;5134759;27;20548;-67
2022/06/18 00:04:39;;;;;;;4.20;3.80;;;21.70;65.50;;;;;;5135411;27;20569;-67
2022/06/18 00:07:09;;;;;;;4.30;3.90;;;21.70;65.70;;;;;;5135324;27;20528;-66
2022/06/18 00:09:41;;;;;;;4.27;3.80;;;21.60;65.60;;;;;;5135044;27;20453;-66
2022/06/18 00:15:03;;;;;;;3.80;3.50;;;21.40;66.00;;;;;;5135276;27;20418;-67
2022/06/18 00:17:30;;;;;;;4.23;3.83;;;21.40;66.70;;;;;;5135065;27;20519;-66
2022/06/18 00:19:57;;;;;;;3.70;3.50;;;21.40;66.20;;;;;;5134843;27;20533;-66
2022/06/18 00:22:24;;;;;;;4.03;3.50;;;21.50;66.60;;;;;;5134808;27;20502;-67
2022/06/18 00:24:53;;;;;;;4.13;3.83;;;21.50;68.80;;;;;;5134768;27;20576;-67
2022/06/18 00:27:21;;;;;;;4.10;3.80;;;21.40;69.10;;;;;;5135055;27;20453;-67
2022/06/18 00:29:50;;;;;;;3.70;3.40;;;21.40;68.90;;;;;;5134845;27;20443;-67
2022/06/18 00:32:17;;;;;;;4.67;3.77;;;21.30;69.90;;;;;;5134818;27;20552;-66
2022/06/18 00:34:44;;;;;;;3.93;3.63;;;21.30;69.30;;;;;;5134784;27;20529;-66
2022/06/18 00:37:17;;;;;;;4.63;4.23;;;21.20;69.10;;;;;;5134665;27;20799;-67
2022/06/18 00:39:44;;;;;;;4.30;4.00;;;21.30;70.20;;;;;;5135321;27;20484;-66
2022/06/18 00:42:23;;;;;;;3.77;3.47;;;21.40;69.90;;;;;;5135790;27;20544;-66
2022/06/18 00:44:54;;;;;;;4.00;3.60;;;21.30;70.20;;;;;;5135777;27;21089;-66
2022/06/18 00:47:29;;;;;;;3.87;3.57;;;21.30;70.10;;;;;;5135908;27;20442;-66
2022/06/18 00:50:01;;;;;;;3.90;3.70;;;21.30;69.90;;;;;;5135801;27;20528;-66
2022/06/18 00:52:34;;;;;;;4.10;3.80;;;21.40;70.20;;;;;;5136275;27;20465;-66
2022/06/18 00:55:05;;;;;;;4.67;4.20;;;21.30;71.80;;;;;;5135798;27;20772;-66
2022/06/18 00:57:41;;;;;;;3.53;3.33;;;21.30;71.80;;;;;;5135769;27;20765;-66
2022/06/18 01:00:11;;;;;;;4.17;3.87;;;21.30;71.40;;;;;;5135688;27;20535;-66
2022/06/18 01:02:41;;;;;;;4.33;4.03;;;21.10;72.70;;;;;;5135366;27;20589;-66
2022/06/18 01:05:19;;;;;;;4.00;3.70;;;21.00;72.60;;;;;;5135319;27;21053;-66
2022/06/18 01:07:49;;;;;;;4.17;3.87;;;21.00;72.70;;;;;;5134777;27;20519;-66
2022/06/18 01:10:21;;;;;;;4.17;3.87;;;21.10;73.50;;;;;;5135256;27;20911;-66
2022/06/18 01:12:50;;;;;;;4.90;4.50;;;21.10;73.30;;;;;;5135298;27;20440;-66
2022/06/18 01:15:21;;;;;;;4.10;3.73;;;21.00;73.00;;;;;;5135384;27;20978;-66
2022/06/18 01:17:50;;;;;;;4.83;4.00;;;21.00;73.40;;;;;;5135379;27;20450;-66
2022/06/18 01:20:17;;;;;;;4.30;3.90;;;21.00;74.40;;;;;;5135249;27;20867;-66
2022/06/18 01:22:56;;;;;;;4.30;3.87;;;20.90;74.40;;;;;;5134799;27;21030;-66
2022/06/18 01:25:26;;;;;;;4.53;4.13;;;20.90;74.20;;;;;;5135077;27;20563;-66
2022/06/18 01:27:54;;;;;;;4.33;4.00;;;20.90;75.00;;;;;;5135168;27;20539;-66
2022/06/18 01:30:23;;;;;;;5.20;4.50;;;20.90;74.90;;;;;;5134724;27;21002;-66
2022/06/18 01:32:52;;;;;;;4.47;4.17;;;20.80;75.00;;;;;;5134959;27;20864;-66
2022/06/18 01:35:21;;;;;;;4.50;4.00;;;20.80;75.60;;;;;;5134946;27;20987;-66
2022/06/18 01:37:48;;;;;;;4.30;4.00;;;20.90;76.20;;;;;;5134949;27;20453;-66
2022/06/18 01:40:21;;;;;;;4.97;4.57;;;20.90;76.50;;;;;;5134965;27;20864;-66
2022/06/18 01:42:51;;;;;;;4.93;4.23;;;20.90;76.00;;;;;;5134855;27;20520;-66
2022/06/18 01:45:22;;;;;;;4.20;3.90;;;20.90;76.30;;;;;;5134653;27;21066;-66
2022/06/18 01:47:52;;;;;;;4.53;4.13;;;20.90;76.50;;;;;;5134603;27;20451;-66
2022/06/18 01:50:23;;;;;;;4.57;4.27;;;20.80;76.40;;;;;;5134650;27;20531;-66
2022/06/18 01:52:54;;;;;;;4.50;4.10;;;20.80;76.20;;;;;;5134297;27;20452;-66
2022/06/18 01:55:26;;;;;;;4.50;4.20;;;20.70;76.00;;;;;;5134704;27;20448;-66
2022/06/18 01:57:59;;;;;;;4.03;3.73;;;20.70;76.60;;;;;;5134636;27;21005;-66
2022/06/18 02:00:28;;;;;;;4.90;4.50;;;20.70;76.80;;;;;;5134569;27;20452;-66
2022/06/18 02:02:57;;;;;;;4.20;3.90;;;20.70;78.50;;;;;;5134516;27;20473;-66
2022/06/18 02:05:24;;;;;;;4.23;3.93;;;20.60;78.20;;;;;;5134301;27;20572;-66
2022/06/18 02:07:52;;;;;;;4.67;4.27;;;20.50;79.30;;;;;;5134417;27;20536;-66
2022/06/18 02:10:22;;;;;;;5.07;4.67;;;20.40;79.50;;;;;;5134528;27;20523;-66
2022/06/18 02:12:50;;;;;;;4.80;4.40;;;20.30;79.60;;;;;;5134400;27;20914;-66
2022/06/18 02:15:23;;;;;;;4.80;4.40;;;20.20;80.50;;;;;;5134434;27;20925;-66
2022/06/18 02:17:50;;;;;;;4.80;4.40;;;20.20;80.50;;;;;;5135873;27;20580;-66
2022/06/18 02:20:20;;;;;;;5.13;4.50;;;20.30;80.80;;;;;;5138484;27;20954;-66
2022/06/18 02:22:51;;;;;;;4.97;4.60;;;20.30;81.20;;;;;;5138680;27;20818;-67
2022/06/18 02:25:21;;;;;;;5.03;4.63;;;20.30;81.00;;;;;;5138536;27;21057;-66
2022/06/18 02:27:50;;;;;;;4.90;4.50;;;20.40;81.30;;;;;;5138609;27;20522;-66
2022/06/18 02:30:21;;;;;;;5.40;4.90;;;20.40;81.50;;;;;;5138510;27;20448;-66
2022/06/18 02:32:55;;;;;;;6.13;5.07;;;20.30;82.20;;;;;;5138468;27;20520;-66
2022/06/18 02:35:22;;;;;;;5.40;5.00;;;20.30;82.90;;;;;;5138508;27;20853;-66
2022/06/18 02:37:49;;;;;;;5.40;5.00;;;20.30;83.20;;;;;;5138201;27;20538;-67
2022/06/18 02:40:19;;;;;;;5.50;5.00;;;20.30;83.60;;;;;;5138261;27;20859;-67
2022/06/18 02:42:48;;;;;;;4.93;4.53;;;20.30;83.80;;;;;;5137900;27;20438;-66
2022/06/18 02:45:16;;;;;;;5.33;4.90;;;20.30;84.10;;;;;;5138238;27;20567;-66
2022/06/18 02:47:45;;;;;;;5.10;4.70;;;20.30;84.20;;;;;;5138284;27;20435;-66
2022/06/18 02:50:15;;;;;;;4.97;4.57;;;20.30;85.00;;;;;;5138225;27;20595;-66
2022/06/18 02:52:45;;;;;;;5.50;5.10;;;20.10;84.70;;;;;;5137655;27;21025;-66
2022/06/18 02:55:21;;;;;;;5.67;5.00;;;20.10;85.10;;;;;;5137865;27;20527;-66
2022/06/18 02:57:51;;;;;;;5.10;4.70;;;20.10;85.90;;;;;;5138137;27;20794;-66
2022/06/18 03:00:18;;;;;;;4.97;4.57;;;20.10;86.30;;;;;;5137766;27;20531;-66
2022/06/18 03:02:46;;;;;;;6.23;5.73;;;20.10;85.90;;;;;;5137608;27;20546;-66
2022/06/18 03:05:21;;;;;;;5.80;5.30;;;20.10;86.00;;;;;;5137852;27;20912;-66
2022/06/18 03:07:48;;;;;;;5.10;4.77;;;20.00;86.70;;;;;;5138108;27;20522;-66
2022/06/18 03:12:59;;;;;;;5.37;4.97;;;20.10;86.90;;;;;;5137649;27;20424;-66
2022/06/18 03:15:26;;;;;;;5.70;5.20;;;20.00;87.60;;;;;;5137539;27;20529;-66
2022/06/18 03:17:54;;;;;;;5.63;5.13;;;20.00;88.40;;;;;;5137750;27;20476;-66
2022/06/18 03:20:26;;;;;;;5.70;5.30;;;19.90;88.70;;;;;;5137342;27;20447;-66
2022/06/18 03:22:53;;;;;;;5.67;5.17;;;19.90;90.10;;;;;;5137269;27;20458;-66
2022/06/18 03:25:20;;;;;;;5.30;4.90;;;19.90;89.10;;;;;;5137513;27;20879;-66
2022/06/18 03:27:46;;;;;;;5.80;5.30;;;19.70;90.30;;;;;;5137528;27;20601;-66
2022/06/18 03:30:18;;;;;;;5.30;4.90;;;19.70;90.40;;;;;;5136426;27;20485;-66
2022/06/18 03:32:44;;;;;;;5.97;5.32;;;19.70;90.10;;;;;;5137083;27;20443;-66
2022/06/18 03:35:13;;;;;;;5.80;5.30;;;19.50;90.30;;;;;;5137199;27;20239;-66
2022/06/18 03:37:40;;;;;;;5.20;4.80;;;19.60;90.80;;;;;;5137214;27;20448;-66
2022/06/18 03:40:10;;;;;;;5.40;5.00;;;19.60;90.80;;;;;;5137256;27;20196;-66
2022/06/18 03:42:37;;;;;;;5.82;5.32;;;19.70;91.00;;;;;;5137089;27;20500;-66
2022/06/18 03:45:05;;;;;;;5.70;5.20;;;19.70;91.00;;;;;;5137089;27;20234;-66
2022/06/18 03:47:32;;;;;;;5.47;5.03;;;19.60;91.10;;;;;;5137093;27;20245;-66
2022/06/18 03:49:59;;;;;;;5.70;5.20;;;19.60;91.10;;;;;;5136873;27;20285;-66
2022/06/18 03:52:27;;;;;;;5.10;4.70;;;19.70;91.10;;;;;;5136410;27;20253;-66
2022/06/18 03:54:54;;;;;;;5.70;5.30;;;19.80;90.80;;;;;;5137014;27;20236;-66
2022/06/18 03:57:20;;;;;;;5.73;5.17;;;19.80;91.30;;;;;;5136852;27;20196;-66
2022/06/18 03:59:47;;;;;;;5.90;5.43;;;19.80;90.70;;;;;;5136900;27;20471;-66
2022/06/18 04:02:15;;;;;;;5.80;5.33;;;19.80;91.10;;;;;;5136644;27;20526;-66
2022/06/18 04:04:42;;;;;;;5.17;4.77;;;19.90;91.10;;;;;;5136795;27;20435;-66
2022/06/18 04:07:16;;;;;;;5.80;5.33;;;19.90;91.20;;;;;;5136541;27;20566;-66
2022/06/18 04:09:45;;;;;;;5.70;5.30;;;19.90;91.00;;;;;;5136697;27;20471;-66
2022/06/18 04:12:13;;;;;;;5.37;4.97;;;19.90;91.50;;;;;;5136194;27;20466;-66
2022/06/18 04:14:40;;;;;;;5.72;5.32;;;19.80;91.50;;;;;;5136625;27;20473;-66
2022/06/18 04:17:06;;;;;;;5.40;5.00;;;19.80;91.90;;;;;;5136548;27;20198;-66
2022/06/18 04:19:33;;;;;;;5.70;5.30;;;19.80;92.50;;;;;;5136507;27;20479;-66
2022/06/18 04:22:00;;;;;;;10.07;7.77;;;19.80;92.50;;;;;;5136198;27;20466;-66
2022/06/18 04:24:27;;;;;;;5.60;5.20;;;19.90;91.90;;;;;;5136163;27;20499;-66
2022/06/18 04:26:55;;;;;;;5.40;5.00;;;19.90;91.70;;;;;;5136329;27;20473;-66
2022/06/18 04:29:22;;;;;;;6.80;5.63;;;20.00;91.50;;;;;;5136323;27;20855;-65
2022/06/18 04:31:49;;;;;;;6.10;5.50;;;20.00;92.30;;;;;;5136247;27;20498;-66
2022/06/18 04:34:16;;;;;;;5.93;5.43;;;20.00;92.70;;;;;;5136161;27;20447;-66
2022/06/18 04:36:43;;;;;;;5.70;5.30;;;19.90;92.90;;;;;;5136187;27;20867;-66
2022/06/18 04:39:12;;;;;;;6.00;5.50;;;19.90;93.10;;;;;;5136064;27;20467;-65
2022/06/18 04:41:38;;;;;;;6.07;5.57;;;20.00;94.00;;;;;;5135964;27;20495;-66
2022/06/18 04:44:07;;;;;;;5.50;5.10;;;20.00;93.80;;;;;;5135872;27;20522;-66
2022/06/18 04:46:34;;;;;;;5.97;5.50;;;20.10;94.40;;;;;;5135781;27;20500;-66
2022/06/18 04:49:01;;;;;;;6.23;5.67;;;20.10;93.80;;;;;;5135920;27;20860;-66
2022/06/18 04:51:28;;;;;;;5.63;5.20;;;20.10;93.60;;;;;;5135591;27;20468;-66
2022/06/18 04:53:55;;;;;;;6.07;5.47;;;20.10;93.70;;;;;;5135408;27;20460;-66
2022/06/18 04:56:22;;;;;;;6.10;5.60;;;20.10;93.50;;;;;;5135828;27;20530;-66
2022/06/18 04:58:49;;;;;;;6.27;5.67;;;20.20;93.30;;;;;;5135786;27;20439;-66
2022/06/18 05:01:19;;;;;;;5.60;5.20;;;20.20;93.30;;;;;;5135632;27;20499;-66
2022/06/18 05:03:46;;;;;;;6.63;6.03;;;20.20;93.30;;;;;;5135603;27;20464;-66
2022/06/18 05:06:13;;;;;;;6.97;6.40;;;20.20;92.80;;;;;;5135244;27;20559;-65
2022/06/18 05:08:40;;;;;;;5.63;5.23;;;20.20;93.00;;;;;;5135579;27;20445;-65
2022/06/18 05:11:07;;;;;;;6.20;5.77;;;20.20;92.60;;;;;;5135450;27;20878;-66
2022/06/18 05:13:34;;;;;;;5.77;5.30;;;20.20;92.60;;;;;;5135338;27;20447;-66
2022/06/18 05:16:01;;;;;;;6.30;5.70;;;20.30;93.10;;;;;;5135469;27;20467;-66
2022/06/18 05:18:33;;;;;;;6.40;5.80;;;20.40;92.90;;;;;;5135369;27;20447;-66
2022/06/18 05:21:00;;;;;;;6.07;5.57;;;20.40;92.90;;;;;;5135318;27;20552;-66
2022/06/18 05:23:28;;;;;;;6.40;5.80;;;20.50;92.80;;;;;;5135119;27;20471;-66
2022/06/18 05:25:59;;;;;;;6.10;5.30;;;20.50;92.40;;;;;;5135149;27;20481;-66
2022/06/18 05:28:26;;;;;;;6.17;5.67;;;20.60;92.40;;;;;;5135319;27;20557;-66
2022/06/18 05:30:53;;;;;;;6.50;5.77;;;20.60;92.70;;;;;;5134946;27;21000;-66
2022/06/18 05:33:20;;;;;;;6.37;5.87;;;20.60;93.00;;;;;;5135270;27;20536;-66
2022/06/18 05:35:49;;;;;;;6.70;6.10;;;20.70;93.30;;;;;;5135076;27;20444;-66
2022/06/18 05:38:19;;;;;;;6.30;5.80;;;20.70;93.50;;;;;;5134833;27;20473;-66
2022/06/18 05:40:46;;;;;;;6.40;5.90;;;20.80;93.30;;;;;;5135227;27;20475;-66
2022/06/18 05:43:13;;;;;;;5.80;5.30;;;20.80;93.40;;;;;;5134515;27;20484;-65
2022/06/18 05:45:43;;;;;;;6.40;5.80;;;20.70;93.90;;;;;;5134673;27;20473;-66
2022/06/18 05:48:11;;;;;;;6.47;5.87;;;20.70;94.80;;;;;;5134638;27;20470;-66
2022/06/18 05:50:38;;;;;;;5.90;5.50;;;20.80;95.00;;;;;;5134830;27;20827;-66
2022/06/18 05:53:07;;;;;;;5.90;5.50;;;20.90;95.00;;;;;;5134032;27;20499;-65
2022/06/18 05:55:34;;;;;;;5.80;5.40;;;21.00;94.70;;;;;;5134672;27;20852;-66
2022/06/18 05:58:01;;;;;;;6.03;5.63;;;21.10;94.70;;;;;;5134683;27;20928;-66
2022/06/18 06:00:31;;;;;;;5.33;4.83;;;21.10;95.00;;;;;;5134330;27;20870;-66
2022/06/18 06:02:58;;;;;;;6.67;6.17;;;21.20;94.90;;;;;;5134368;27;20931;-66
2022/06/18 06:05:25;;;;;;;6.43;6.00;;;21.30;94.60;;;;;;5134663;27;20480;-66
2022/06/18 06:07:52;;;;;;;6.50;6.00;;;21.30;94.60;;;;;;5134549;27;20484;-66
2022/06/18 06:13:09;;;;;;;6.53;6.03;;;21.30;94.70;;;;;;5134437;28;20420;-66
2022/06/18 06:15:37;;;;;;;7.20;6.50;;;21.30;94.90;;;;;;5134573;27;20452;-65
2022/06/18 06:18:04;;;;;;;9.03;8.00;;;21.30;95.40;;;;;;5134558;27;20528;-65
2022/06/18 06:20:34;;;;;;;10.43;7.83;;;21.30;96.00;;;;;;5134502;27;20440;-65
2022/06/18 06:23:01;;;;;;;8.80;7.93;;;21.30;96.00;;;;;;5134366;27;20441;-65
2022/06/18 06:25:29;;;;;;;8.50;7.83;;;21.30;95.90;;;;;;5134395;27;20514;-65
2022/06/18 06:27:57;;;;;;;8.50;7.47;;;21.40;95.40;;;;;;5134359;27;20915;-66
2022/06/18 06:30:24;;;;;;;7.03;6.43;;;21.40;95.50;;;;;;5134419;27;20480;-66
2022/06/18 06:32:51;;;;;;;7.27;6.67;;;21.50;95.80;;;;;;5134009;27;20528;-66
2022/06/18 06:35:18;;;;;;;7.33;6.70;;;21.60;95.90;;;;;;5134656;27;20438;-66
2022/06/18 06:37:45;;;;;;;6.77;6.17;;;21.70;95.50;;;;;;5134311;27;20476;-66
2022/06/18 06:40:14;;;;;;;7.20;6.53;;;21.70;95.40;;;;;;5134080;27;20498;-66
2022/06/18 06:42:44;;;;;;;7.87;7.17;;;21.80;95.60;;;;;;5134228;27;20438;-66
2022/06/18 06:45:14;;;;;;;7.27;6.67;;;21.90;95.10;;;;;;5134371;27;20446;-66
2022/06/18 06:47:41;;;;;;;6.50;5.90;;;22.10;95.00;;;;;;5134126;27;21006;-66
2022/06/18 06:50:10;;;;;;;6.33;5.83;;;22.20;95.10;;;;;;5134285;27;20473;-66
2022/06/18 06:52:37;;;;;;;6.50;6.00;;;22.30;94.60;;;;;;5133837;27;20840;-66
2022/06/18 06:57:51;;;;;;;6.63;6.13;;;22.40;94.80;;;;;;5134598;28;20409;-65
2022/06/18 07:00:19;;;;;;;7.00;6.40;;;22.50;94.00;;;;;;5134096;27;20466;-65
2022/06/18 07:02:46;;;;;;;6.17;5.67;;;22.90;94.00;;;;;;5134031;27;20466;-66
2022/06/18 07:05:14;;;;;;;7.07;6.50;;;23.20;93.70;;;;;;5135963;27;20434;-66
2022/06/18 07:07:42;;;;;;;6.90;6.30;;;23.40;93.60;;;;;;5137886;27;20565;-66
2022/06/18 07:10:10;;;;;;;7.80;6.33;;;23.40;92.40;;;;;;5137754;27;20474;-66
2022/06/18 07:12:38;;;;;;;6.37;5.90;;;23.50;92.50;;;;;;5137724;27;20825;-66
2022/06/18 07:15:08;;;;;;;6.63;6.03;;;23.60;93.10;;;;;;5137687;27;20478;-66
2022/06/18 07:17:35;;;;;;;6.20;5.70;;;23.60;92.20;;;;;;5137718;27;20439;-66
2022/06/18 07:20:03;;;;;;;6.90;6.40;;;23.70;92.70;;;;;;5137770;27;20474;-66
2022/06/18 07:22:31;;;;;;;6.03;5.57;;;23.90;92.40;;;;;;5137587;27;20491;-66
2022/06/18 07:24:58;;;;;;;6.67;6.07;;;24.10;92.60;;;;;;5137309;27;20531;-65
2022/06/18 07:27:24;;;;;;;6.40;5.90;;;24.10;91.90;;;;;;5137543;27;20569;-66
2022/06/18 07:29:52;;;;;;;7.00;6.50;;;24.20;91.50;;;;;;5137436;27;20933;-66
2022/06/18 07:32:21;;;;;;;6.40;6.00;;;24.20;91.30;;;;;;5136939;27;20983;-66
2022/06/18 07:34:48;;;;;;;6.10;5.50;;;24.30;91.40;;;;;;5137416;27;20444;-66
2022/06/18 07:37:15;;;;;;;6.90;6.30;;;24.40;91.10;;;;;;5137548;27;20465;-66
2022/06/18 07:39:41;;;;;;;6.20;5.70;;;24.50;91.10;;;;;;5137362;27;20460;-66
2022/06/18 07:42:09;;;;;;;6.30;5.80;;;24.60;91.50;;;;;;5137132;27;20590;-65
2022/06/18 07:44:36;;;;;;;6.33;5.90;;;24.60;91.40;;;;;;5137124;27;20979;-66
2022/06/18 07:47:03;;;;;;;7.23;6.30;;;24.70;91.10;;;;;;5137189;27;20508;-66
2022/06/18 07:49:32;;;;;;;6.27;5.87;;;24.90;90.40;;;;;;5137145;27;20443;-66
2022/06/18 07:51:59;;;;;;;6.17;5.77;;;25.30;89.80;;;;;;5136789;27;20553;-66
2022/06/18 07:54:26;;;;;;;6.03;5.50;;;26.00;89.20;;;;;;5136790;27;20560;-66
2022/06/18 07:56:53;;;;;;;6.50;6.00;;;26.40;86.10;;;;;;5136963;27;20477;-66
2022/06/18 07:59:20;;;;;;;6.37;5.87;;;26.80;83.70;;;;;;5136625;27;20470;-66
2022/06/18 08:01:47;;;;;;;5.63;5.20;;;27.40;82.50;;;;;;5136801;27;20805;-66
2022/06/18 08:04:13;;;;;;;5.73;5.33;;;28.10;81.60;;;;;;5136511;27;20486;-66
2022/06/18 08:06:43;;;;;;;6.20;5.70;;;28.50;77.10;;;;;;5136626;27;21086;-66
2022/06/18 08:09:10;;;;;;;6.47;5.90;;;28.50;75.10;;;;;;5137265;27;20476;-66
2022/06/18 08:11:37;;;;;;;6.50;6.00;;;28.40;74.40;;;;;;5136654;27;20499;-67
2022/06/18 08:14:05;;;;;;;6.67;6.10;;;28.30;74.30;;;;;;5136405;27;20532;-66
2022/06/18 08:16:32;;;;;;;5.90;5.50;;;28.10;73.30;;;;;;5136196;27;20485;-66
2022/06/18 08:18:59;;;;;;;6.10;5.60;;;28.30;77.00;;;;;;5136546;27;20867;-66
2022/06/18 08:21:31;;;;;;;6.87;6.33;;;28.50;77.70;;;;;;5136485;27;20455;-66
2022/06/18 08:24:04;;;;;;;6.03;5.63;;;28.60;73.00;;;;;;5136468;27;20464;-67
2022/06/18 08:26:32;;;;;;;6.40;6.00;;;28.60;72.10;;;;;;5136425;27;20847;-66
2022/06/18 08:28:59;;;;;;;6.03;5.60;;;28.70;74.60;;;;;;5136356;27;20442;-66
2022/06/18 08:31:26;;;;;;;6.53;6.03;;;29.30;72.50;;;;;;5136133;27;20556;-67
2022/06/18 08:33:53;;;;;;;5.90;5.40;;;29.60;70.90;;;;;;5136159;27;20520;-66
2022/06/18 08:36:20;;;;;;;7.20;6.70;;;30.10;68.30;;;;;;5136243;27;20435;-66
2022/06/18 08:38:49;;;;;;;6.13;5.50;;;30.30;67.40;;;;;;5136078;27;20462;-66
2022/06/18 08:41:37;;;;;;;5.97;5.57;;;30.20;64.80;;;;;;5136136;27;20497;-67
2022/06/18 08:44:36;;;;;;;6.17;5.77;;;30.70;67.10;;;;;;5135926;27;20485;-67
2022/06/18 08:47:10;;;;;;;5.87;5.53;;;31.20;66.80;;;;;;5114257;27;20535;-67
2022/06/18 08:50:04;;;;;;;6.20;5.70;;;31.40;63.80;;;;;;5136392;27;20454;-67
2022/06/18 08:52:52;;;;;;;5.70;5.40;;;31.90;61.90;;;;;;5135601;27;20469;-67
2022/06/18 08:55:29;;;;;;;6.17;5.77;;;32.60;61.00;;;;;;5135791;27;20846;-67
2022/06/18 08:58:06;;;;;;;6.17;5.57;;;33.50;58.30;;;;;;5135811;27;20437;-67
2022/06/18 09:00:41;;;;;;;5.40;5.10;;;34.30;55.50;;;;;;5135532;27;20470;-67
2022/06/18 09:03:13;;;;;;;5.17;4.87;;;35.50;53.40;;;;;;5135296;27;20942;-67
2022/06/18 09:05:53;;;;;;;4.70;4.23;;;36.60;50.50;;;;;;5135652;27;20465;-67
2022/06/18 09:08:49;;;;;;;7.50;7.00;;;37.70;45.20;;;;;;5135548;27;20553;-67
2022/06/18 09:11:24;;;;;;;5.10;4.80;;;38.20;43.80;;;;;;5135520;27;20458;-67
2022/06/18 09:13:58;;;;;;;4.70;4.50;;;38.40;42.10;;;;;;5135077;27;20455;-67
2022/06/18 09:16:32;;;;;;;5.33;5.03;;;38.90;41.90;;;;;;5135404;27;20481;-67
2022/06/18 09:19:03;;;;;;;5.60;5.20;;;38.60;39.70;;;;;;5135395;27;20462;-67
2022/06/18 09:21:38;;;;;;;5.60;5.07;;;38.30;39.30;;;;;;5135303;27;20473;-67
2022/06/18 09:24:07;;;;;;;5.03;4.73;;;38.10;40.00;;;;;;5135142;27;20525;-67
2022/06/18 09:26:38;;;;;;;5.17;4.87;;;38.50;40.20;;;;;;5134868;27;20482;-67
2022/06/18 09:29:13;;;;;;;5.97;5.30;;;39.30;40.50;;;;;;5134758;27;20473;-67
2022/06/18 09:31:46;;;;;;;5.10;4.80;;;39.60;39.00;;;;;;5134899;27;20827;-67
2022/06/18 09:34:17;;;;;;;5.03;4.73;;;40.30;39.20;;;;;;5135203;27;20477;-67
2022/06/18 09:36:48;;;;;;;5.50;5.10;;;40.60;35.20;;;;;;5135270;27;20470;-67
2022/06/18 09:39:19;;;;;;;5.00;4.67;;;40.10;34.80;;;;;;5135483;27;20448;-67
2022/06/18 09:41:56;;;;;;;4.90;4.60;;;40.60;38.20;;;;;;5135265;27;20498;-67
2022/06/18 09:44:30;;;;;;;5.10;4.80;;;40.90;36.20;;;;;;5134909;27;20441;-67
2022/06/18 09:47:01;;;;;;;4.93;4.70;;;40.30;34.00;;;;;;5134965;27;20465;-67
2022/06/18 09:49:29;;;;;;;4.70;4.40;;;40.30;33.90;;;;;;5134858;27;20529;-67
2022/06/18 09:52:01;;;;;;;4.73;4.33;;;40.10;34.10;;;;;;5134838;27;20458;-67
2022/06/18 09:54:33;;;;;;;4.73;4.43;;;40.20;34.80;;;;;;5134438;27;20469;-67
2022/06/18 09:57:01;;;;;;;5.20;4.90;;;40.80;33.30;;;;;;5134804;27;20469;-67
2022/06/18 09:59:34;;;;;;;4.57;4.30;;;40.90;33.10;;;;;;5134736;27;20855;-67
2022/06/18 10:02:02;;;;;;;4.60;4.40;;;40.50;32.40;;;;;;5135126;27;20467;-67
2022/06/18 10:07:19;;;;;;;4.40;4.10;;;40.90;31.70;;;;;;5133516;27;20498;-68
2022/06/18 10:09:50;;;;;;;3.70;3.50;;;41.20;31.30;;;;;;5133830;27;20438;-68
2022/06/18 10:12:21;;;;;;;4.10;3.90;;;41.40;30.80;;;;;;5133061;27;20492;-67
2022/06/18 10:14:52;;;;;;;3.80;3.60;;;41.40;29.90;;;;;;5133523;27;20493;-68
2022/06/18 10:17:29;;;;;;;4.47;4.10;;;41.10;30.00;;;;;;5133158;27;20491;-68
2022/06/18 10:20:04;;;;;;;3.70;3.50;;;41.40;32.80;;;;;;5133220;27;20485;-67
2022/06/18 10:22:41;;;;;;;3.70;3.50;;;40.80;30.60;;;;;;5133205;27;20553;-68
2022/06/18 10:25:18;;;;;;;3.57;3.43;;;40.50;30.60;;;;;;5133235;27;20458;-68
2022/06/18 10:27:52;;;;;;;4.43;4.20;;;40.10;30.70;;;;;;5132885;27;20473;-68
2022/06/18 10:30:30;;;;;;;3.70;3.47;;;39.50;31.50;;;;;;5133088;27;20470;-68
2022/06/18 10:33:06;;;;;;;3.83;3.53;;;39.40;33.00;;;;;;5132961;27;20529;-68
2022/06/18 10:35:48;;;;;;;3.37;3.27;;;38.80;35.00;;;;;;5133071;27;20470;-69
2022/06/18 10:38:44;;;;;;;3.90;3.70;;;38.30;33.10;;;;;;5133780;27;20446;-68
2022/06/18 10:41:18;;;;;;;3.77;3.47;;;37.70;33.60;;;;;;5137025;27;20892;-68
2022/06/18 10:44:02;;;;;;;4.20;4.00;;;36.90;34.80;;;;;;5137163;27;20481;-68
2022/06/18 10:46:30;;;;;;;3.90;3.63;;;36.40;35.50;;;;;;5136881;27;20433;-68
2022/06/18 10:49:00;;;;;;;4.20;3.90;;;35.70;36.30;;;;;;5136795;27;20916;-68
2022/06/18 10:51:29;;;;;;;4.10;3.80;;;35.20;35.90;;;;;;5136910;27;20470;-68
2022/06/18 10:53:58;;;;;;;3.67;3.37;;;35.00;36.30;;;;;;5136835;27;20496;-68
2022/06/18 10:56:30;;;;;;;4.10;3.90;;;34.70;37.40;;;;;;5137087;27;20890;-68
2022/06/18 10:58:59;;;;;;;3.60;3.40;;;34.60;37.60;;;;;;5136857;27;20442;-68
2022/06/18 11:01:31;;;;;;;3.60;3.40;;;34.40;36.90;;;;;;5136821;27;20491;-69
2022/06/18 11:04:04;;;;;;;3.30;3.10;;;34.10;39.70;;;;;;5137499;27;20545;-68
2022/06/18 11:06:32;;;;;;;3.70;3.50;;;34.00;37.60;;;;;;5137519;27;20478;-68
2022/06/18 11:09:02;;;;;;;3.80;3.50;;;34.00;37.90;;;;;;5138063;27;20488;-69
2022/06/18 11:11:34;;;;;;;3.70;3.50;;;34.00;38.90;;;;;;5137701;27;20869;-69
2022/06/18 11:14:14;;;;;;;4.40;4.00;;;33.90;38.90;;;;;;5137491;27;20458;-69
2022/06/18 11:16:42;;;;;;;4.40;4.00;;;33.90;38.20;;;;;;5136945;27;20474;-69
2022/06/18 11:19:18;;;;;;;3.67;3.47;;;33.90;39.10;;;;;;5136208;27;20440;-68
2022/06/18 11:21:45;;;;;;;3.97;3.73;;;33.90;39.60;;;;;;5136603;27;20493;-69
2022/06/18 11:24:24;;;;;;;3.50;3.30;;;33.80;38.70;;;;;;5136298;27;20448;-68
2022/06/18 11:26:55;;;;;;;3.93;3.67;;;33.90;39.50;;;;;;5136133;27;20465;-67
2022/06/18 11:29:31;;;;;;;3.50;3.20;;;33.90;39.90;;;;;;5135759;27;20470;-68
2022/06/18 11:32:00;;;;;;;3.90;3.70;;;33.90;39.50;;;;;;5136348;27;20505;-67
2022/06/18 11:34:33;;;;;;;3.93;3.63;;;34.00;38.00;;;;;;5136256;27;20474;-68
2022/06/18 11:37:01;;;;;;;5.07;4.57;;;34.00;39.30;;;;;;5136236;27;20446;-68
2022/06/18 11:39:33;;;;;;;4.10;3.80;;;34.10;38.40;;;;;;5136190;27;20477;-68
2022/06/18 11:42:08;;;;;;;4.00;3.60;;;34.10;38.90;;;;;;5135831;27;20501;-68
2022/06/18 11:44:43;;;;;;;3.87;3.67;;;34.00;39.80;;;;;;5136417;27;20430;-68
2022/06/18 11:47:16;;;;;;;4.07;3.53;;;33.90;40.20;;;;;;5135740;27;20446;-68
2022/06/18 11:49:55;;;;;;;3.97;3.70;;;34.00;39.00;;;;;;5135484;27;20505;-67
2022/06/18 11:52:29;;;;;;;4.00;3.70;;;34.00;39.70;;;;;;5135307;27;20484;-68
2022/06/18 11:55:04;;;;;;;3.93;3.63;;;34.00;40.00;;;;;;5136354;27;20869;-69
2022/06/18 11:57:36;;;;;;;3.77;3.47;;;33.90;38.60;;;;;;5135840;27;20468;-69
2022/06/18 12:00:11;;;;;;;4.30;3.77;;;33.90;39.30;;;;;;5135722;27;20485;-69
2022/06/18 12:02:48;;;;;;;5.83;3.80;;;33.90;39.40;;;;;;5135683;27;20871;-68
2022/06/18 12:05:22;;;;;;;5.47;3.57;;;33.90;38.80;;;;;;5135530;27;20521;-70
2022/06/18 12:07:53;;;;;;;3.37;3.13;;;34.00;38.10;;;;;;5135223;27;20980;-70
2022/06/18 12:10:31;;;;;;;5.60;3.57;;;33.90;36.70;;;;;;5135287;27;20877;-69
2022/06/18 12:13:07;;;;;;;4.43;3.23;;;33.90;38.10;;;;;;5135340;27;20537;-69
2022/06/18 12:15:42;;;;;;;3.27;3.07;;;34.00;39.50;;;;;;5135751;27;20939;-69
2022/06/18 12:18:16;;;;;;;3.60;3.30;;;33.90;38.00;;;;;;5135505;27;20426;-69
2022/06/18 12:20:59;;;;;;;3.17;2.87;;;34.00;38.50;;;;;;5135548;27;20494;-69
2022/06/18 12:23:40;;;;;;;4.07;3.40;;;34.00;39.40;;;;;;5135165;27;20456;-69
2022/06/18 12:26:14;;;;;;;4.07;3.20;;;34.10;39.00;;;;;;5135404;27;20434;-69
2022/06/18 12:28:54;;;;;;;3.50;3.20;;;34.00;38.00;;;;;;5135038;27;20473;-69
2022/06/18 12:31:27;;;;;;;3.83;3.53;;;33.70;38.20;;;;;;5135169;27;20494;-68
2022/06/18 12:34:01;;;;;;;4.80;3.93;;;33.60;39.70;;;;;;5135100;27;20437;-68
2022/06/18 12:36:41;;;;;;;3.40;3.07;;;33.60;38.80;;;;;;5135431;27;20478;-69
2022/06/18 12:39:15;;;;;;;6.03;5.43;;;33.60;38.90;;;;;;5135195;27;20495;-69
2022/06/18 12:41:51;;;;;;;5.47;3.93;;;33.60;39.90;;;;;;5135029;27;20992;-68
2022/06/18 12:44:32;;;;;;;6.17;4.00;;;33.60;39.20;;;;;;5134756;27;20961;-69
2022/06/18 12:47:07;;;;;;;6.20;4.20;;;33.80;38.80;;;;;;5134894;27;20446;-69
2022/06/18 12:49:38;;;;;;;6.50;4.10;;;34.00;38.90;;;;;;5134849;27;20510;-69
2022/06/18 12:52:30;;;;;;;4.33;3.93;;;34.10;38.70;;;;;;5134482;27;20862;-70
2022/06/18 12:55:10;;;;;;;7.13;3.83;;;34.10;38.30;;;;;;5134581;27;20445;-69
2022/06/18 12:57:52;;;;;;;4.00;3.60;;;34.00;38.60;;;;;;5134573;27;20442;-68
2022/06/18 13:00:25;;;;;;;4.40;4.00;;;33.80;38.60;;;;;;5134713;27;20776;-68
2022/06/18 13:03:16;;;;;;;6.03;4.47;;;33.60;39.60;;;;;;5133297;27;20430;-69
2022/06/18 13:05:46;;;;;;;6.90;4.60;;;33.50;39.50;;;;;;5135056;27;20453;-69
2022/06/18 13:08:35;;;;;;;5.83;4.50;;;33.30;40.50;;;;;;5134541;27;20862;-69
2022/06/18 13:11:12;;;;;;;6.83;5.20;;;33.20;42.10;;;;;;5134388;27;20458;-69
2022/06/18 13:13:53;;;;;;;5.40;4.47;;;33.30;41.10;;;;;;5134039;27;20484;-67
2022/06/18 13:16:25;;;;;;;5.40;4.80;;;33.40;41.60;;;;;;5134786;27;20481;-69
2022/06/18 13:18:56;;;;;;;6.03;5.00;;;33.50;41.70;;;;;;5134124;27;20438;-69
2022/06/18 13:21:23;;;;;;;4.83;4.53;;;33.50;42.10;;;;;;5134210;27;20545;-69